Time;durP1;ratioP1;P1;durP2;ratioP2;P2;SDS_P1;SDS_P2;PMS_P1;PMS_P2;Temp;Humidity;BMP_temperature;BMP_pressure;BME280_temperature;BME280_humidity;BME280_pressure;Samples;Min_cycle;Max_cycle;Signal;HPM_P1;HPM_P2
2022/09/18 00:04:52;;;;;;;6.80;1.37;;;9.60;99.90;;;;;;20988242;28;20510;-77
2022/09/18 00:14:53;;;;;;;2.10;0.90;;;9.70;99.90;;;;;;21006365;28;20036;-79
2022/09/18 00:24:54;;;;;;;4.70;1.03;;;9.60;99.90;;;;;;20970529;28;20044;-77
2022/09/18 00:34:55;;;;;;;4.18;1.20;;;9.60;99.90;;;;;;20987009;28;20498;-79
2022/09/18 00:44:56;;;;;;;3.63;1.20;;;9.60;99.90;;;;;;21005937;28;20040;-77
2022/09/18 00:55:04;;;;;;;3.17;1.20;;;9.50;99.90;;;;;;20982173;28;20040;-77
2022/09/18 01:05:07;;;;;;;5.90;1.50;;;9.30;99.90;;;;;;20977259;28;20537;-78
2022/09/18 01:15:36;;;;;;;11.93;1.42;;;9.20;99.90;;;;;;20995628;28;20045;-77
2022/09/18 01:25:59;;;;;;;12.85;1.30;;;9.10;99.90;;;;;;20976959;28;20041;-79
2022/09/18 01:36:06;;;;;;;2.80;1.00;;;9.00;99.90;;;;;;20995167;28;20079;-79
2022/09/18 01:46:12;;;;;;;4.60;1.50;;;8.90;99.90;;;;;;20995162;28;20136;-79
2022/09/18 01:56:36;;;;;;;2.28;1.30;;;8.70;99.90;;;;;;20977675;28;20032;-78
2022/09/18 02:07:07;;;;;;;6.10;1.35;;;8.40;99.90;;;;;;20991808;28;20036;-79
2022/09/18 02:17:19;;;;;;;3.55;1.05;;;8.40;99.90;;;;;;20973496;28;20032;-79
2022/09/18 02:27:23;;;;;;;4.72;1.10;;;8.40;99.90;;;;;;20970630;28;20032;-80
2022/09/18 02:37:45;;;;;;;4.70;1.20;;;8.20;99.90;;;;;;20989857;28;20520;-78
2022/09/18 02:47:47;;;;;;;5.80;1.27;;;8.20;99.90;;;;;;21004196;28;20094;-78
2022/09/18 02:58:08;;;;;;;4.40;1.17;;;8.10;99.90;;;;;;20986252;28;20044;-78
2022/09/18 03:08:10;;;;;;;2.65;1.25;;;8.10;99.90;;;;;;20984372;28;20174;-77
2022/09/18 03:18:13;;;;;;;8.45;1.38;;;8.10;99.90;;;;;;20984346;28;20040;-78
2022/09/18 03:28:14;;;;;;;2.78;1.48;;;8.00;99.90;;;;;;20983425;28;20032;-79
2022/09/18 03:38:15;;;;;;;;;;;7.90;99.90;;;;;;20968428;28;20414;-79
2022/09/18 03:48:16;;;;;;;6.85;1.48;;;7.80;99.90;;;;;;20983247;28;19923;-77
2022/09/18 03:58:18;;;;;;;7.35;1.65;;;7.80;99.90;;;;;;20983173;28;20490;-78
2022/09/18 04:08:44;;;;;;;4.72;2.17;;;7.70;99.90;;;;;;20981030;28;20056;-78
2022/09/18 04:19:00;;;;;;;3.97;1.77;;;7.70;99.90;;;;;;20979963;28;20506;-76
2022/09/18 04:29:01;;;;;;;2.43;1.70;;;7.60;99.90;;;;;;20979569;28;20047;-79
2022/09/18 04:39:03;;;;;;;4.43;1.90;;;7.50;99.90;;;;;;20962767;28;20275;-79
2022/09/18 04:49:04;;;;;;;4.93;1.45;;;7.50;99.90;;;;;;20996231;28;20033;-77
2022/09/18 04:59:05;;;;;;;4.60;2.10;;;7.40;99.90;;;;;;20979316;28;20536;-78
2022/09/18 05:09:08;;;;;;;4.63;2.00;;;7.30;99.90;;;;;;20977161;28;20079;-77
2022/09/18 05:19:09;;;;;;;10.67;1.90;;;7.30;99.90;;;;;;20995003;28;20040;-78
2022/09/18 05:29:10;;;;;;;4.00;2.13;;;7.20;99.90;;;;;;20975902;28;20127;-79
2022/09/18 05:39:12;;;;;;;5.88;2.00;;;7.10;99.90;;;;;;20972425;28;20033;-77
2022/09/18 05:49:14;;;;;;;10.73;2.55;;;7.00;99.90;;;;;;20989361;28;20123;-78
2022/09/18 05:59:15;;;;;;;9.55;4.03;;;7.30;99.90;;;;;;20976670;28;20040;-78
2022/09/18 06:09:20;;;;;;;4.93;2.80;;;7.50;99.90;;;;;;20970973;28;20228;-78
2022/09/18 06:19:22;;;;;;;18.10;2.72;;;7.80;99.90;;;;;;20987655;28;20379;-77
2022/09/18 06:29:23;;;;;;;6.10;2.37;;;8.30;99.90;;;;;;20986420;28;20037;-78
2022/09/18 06:39:36;;;;;;;6.82;1.92;;;9.00;99.90;;;;;;20971864;28;20140;-77
2022/09/18 06:49:37;;;;;;;8.32;2.22;;;9.80;99.90;;;;;;20987184;28;20534;-78
2022/09/18 06:59:38;;;;;;;3.47;1.77;;;9.80;99.90;;;;;;21005730;28;20032;-79
2022/09/18 07:09:41;;;;;;;10.35;1.65;;;10.20;99.90;;;;;;21003220;28;20060;-79
2022/09/18 07:20:05;;;;;;;6.15;1.55;;;10.60;99.90;;;;;;21000910;28;20116;-78
2022/09/18 07:30:13;;;;;;;4.22;1.30;;;10.70;99.90;;;;;;20971396;28;20064;-78
2022/09/18 07:40:14;;;;;;;2.70;1.23;;;10.80;99.90;;;;;;21003098;28;20036;-79
2022/09/18 07:50:38;;;;;;;2.47;1.05;;;11.20;99.90;;;;;;20996517;28;20062;-78
2022/09/18 08:00:41;;;;;;;2.75;0.80;;;11.70;99.90;;;;;;20984225;28;20072;-78
2022/09/18 08:10:44;;;;;;;6.65;1.63;;;11.70;99.90;;;;;;20985697;28;20032;-80
2022/09/18 08:21:06;;;;;;;8.95;0.93;;;12.40;99.90;;;;;;21006265;28;20147;-79
2022/09/18 08:31:17;;;;;;;4.28;0.75;;;13.30;99.90;;;;;;20973072;28;20037;-79
2022/09/18 08:41:19;;;;;;;2.88;0.70;;;13.00;99.90;;;;;;20970000;28;20413;-80
2022/09/18 08:51:47;;;;;;;3.42;0.50;;;14.30;99.90;;;;;;20965727;28;20033;-79
2022/09/18 09:02:17;;;;;;;2.72;0.80;;;13.80;99.90;;;;;;20979064;28;20045;-77
2022/09/18 09:12:47;;;;;;;0.85;0.70;;;14.20;99.90;;;;;;20992800;28;20063;-79
2022/09/18 09:23:02;;;;;;;3.92;0.60;;;14.60;99.90;;;;;;20981917;28;20037;-80
2022/09/18 09:33:30;;;;;;;6.93;1.15;;;15.30;99.90;;;;;;21000319;28;20040;-80
2022/09/18 09:44:13;;;;;;;2.53;0.80;;;15.90;99.90;;;;;;21001665;28;20068;-78
2022/09/18 09:54:14;;;;;;;3.65;0.70;;;17.10;99.90;;;;;;20999868;28;20048;-79
2022/09/18 10:04:46;;;;;;;4.53;0.60;;;16.80;99.90;;;;;;20986521;28;20096;-79
2022/09/18 10:14:49;;;;;;;2.60;0.50;;;16.60;99.90;;;;;;20998358;28;20047;-78
2022/09/18 10:25:06;;;;;;;3.17;0.60;;;16.70;99.90;;;;;;20993438;28;20040;-80
2022/09/18 10:35:41;;;;;;;3.40;0.60;;;15.70;99.90;;;;;;20993667;28;20044;-78
2022/09/18 10:45:49;;;;;;;2.53;0.73;;;16.80;99.90;;;;;;20974625;28;20041;-79
2022/09/18 10:56:19;;;;;;;4.93;0.82;;;15.10;99.90;;;;;;21000502;28;20414;-80
2022/09/18 11:06:24;;;;;;;1.73;0.57;;;15.50;99.90;;;;;;20993003;28;20173;-80
2022/09/18 11:16:36;;;;;;;4.57;0.47;;;15.90;99.90;;;;;;20982229;28;20044;-80
2022/09/18 11:26:48;;;;;;;1.30;0.63;;;17.00;99.90;;;;;;20989098;28;20075;-80
2022/09/18 11:36:53;;;;;;;3.63;0.40;;;17.00;99.90;;;;;;21011074;28;20033;-80
2022/09/18 11:47:24;;;;;;;1.00;0.50;;;17.90;99.90;;;;;;20994251;28;20037;-80
2022/09/18 11:57:38;;;;;;;1.67;0.50;;;17.00;99.90;;;;;;20994067;28;20032;-80
2022/09/18 12:08:15;;;;;;;2.22;0.43;;;17.80;99.90;;;;;;21162893;27;20408;-80
2022/09/18 12:18:25;;;;;;;0.60;0.47;;;18.10;99.90;;;;;;21162166;28;20040;-79
2022/09/18 12:28:49;;;;;;;1.73;0.50;;;17.20;99.90;;;;;;21161906;28;20173;-81
2022/09/18 12:39:09;;;;;;;2.03;0.50;;;18.50;99.90;;;;;;21173983;28;20074;-82
2022/09/18 12:49:22;;;;;;;0.75;0.40;;;17.70;99.90;;;;;;21187992;28;20083;-80
2022/09/18 12:59:41;;;;;;;1.15;0.45;;;16.40;99.90;;;;;;21165026;28;20048;-80
2022/09/18 13:10:22;;;;;;;1.70;1.15;;;16.70;99.90;;;;;;21166092;28;20032;-80
2022/09/18 13:20:30;;;;;;;2.35;0.45;;;16.30;99.90;;;;;;21131768;28;20326;-81
2022/09/18 13:30:32;;;;;;;0.80;0.50;;;16.00;99.90;;;;;;21129728;28;20479;-81
2022/09/18 13:40:37;;;;;;;;;;;16.30;99.90;;;;;;21127466;28;20035;-80
2022/09/18 13:50:53;;;;;;;2.47;0.73;;;16.50;99.90;;;;;;21109640;28;19953;-81
2022/09/18 14:00:53;;;;;;;1.73;0.50;;;16.60;99.90;;;;;;21126133;28;20032;-81
2022/09/18 14:11:09;;;;;;;1.80;0.50;;;18.20;99.90;;;;;;21121628;28;20060;-80
2022/09/18 14:21:16;;;;;;;1.10;0.40;;;18.90;99.90;;;;;;21085956;28;20546;-81
2022/09/18 14:31:27;;;;;;;3.45;0.95;;;18.50;99.90;;;;;;21094787;28;20032;-82
2022/09/18 14:41:34;;;;;;;3.73;0.67;;;17.50;99.90;;;;;;21099830;28;20475;-80
2022/09/18 14:51:44;;;;;;;4.63;0.60;;;17.00;99.90;;;;;;21107028;28;20080;-80
2022/09/18 15:01:45;;;;;;;2.22;0.40;;;16.40;99.90;;;;;;21132635;28;20118;-80
2022/09/18 15:11:47;;;;;;;2.33;0.57;;;16.20;99.90;;;;;;21123611;28;20036;-81
2022/09/18 15:21:48;;;;;;;;;;;15.90;99.90;;;;;;21116763;28;20028;-81
2022/09/18 15:31:49;;;;;;;1.25;0.50;;;15.50;99.90;;;;;;21114271;28;19908;-80
2022/09/18 15:41:50;;;;;;;;;;;15.30;99.90;;;;;;21099109;28;20032;-79
2022/09/18 15:51:51;;;;;;;4.78;0.50;;;15.30;99.90;;;;;;21094464;28;19915;-81
2022/09/18 16:01:52;;;;;;;4.23;0.63;;;15.40;99.90;;;;;;21104736;28;20032;-82
2022/09/18 16:11:53;;;;;;;0.97;0.40;;;15.60;99.90;;;;;;21100841;28;20035;-81
2022/09/18 16:21:54;;;;;;;4.23;0.50;;;15.50;99.90;;;;;;21097902;28;20036;-80
2022/09/18 16:31:55;;;;;;;4.60;0.60;;;15.20;99.90;;;;;;21098344;28;20054;-78
2022/09/18 16:41:55;;;;;;;1.90;0.50;;;15.10;99.90;;;;;;21088144;28;20024;-81
2022/09/18 16:51:56;;;;;;;2.30;0.60;;;14.70;99.90;;;;;;21107360;28;20035;-82
2022/09/18 17:01:58;;;;;;;2.30;0.50;;;14.40;99.90;;;;;;21101326;28;20031;-81
2022/09/18 17:11:59;;;;;;;2.53;0.40;;;14.20;99.90;;;;;;21064757;28;20083;-79
2022/09/18 17:22:00;;;;;;;5.10;0.60;;;14.10;99.90;;;;;;21071811;28;20285;-80
2022/09/18 17:32:01;;;;;;;4.33;0.47;;;14.00;99.90;;;;;;21094618;28;20039;-80
2022/09/18 17:42:02;;;;;;;0.93;0.50;;;13.80;99.90;;;;;;21102209;28;20028;-81
2022/09/18 17:52:04;;;;;;;0.73;0.40;;;13.80;99.90;;;;;;21093556;28;20398;-80
2022/09/18 18:02:06;;;;;;;1.63;0.60;;;13.60;99.90;;;;;;21092226;28;20032;-81
2022/09/18 18:12:07;;;;;;;2.45;0.60;;;13.40;99.90;;;;;;21095284;28;20030;-80
2022/09/18 18:22:08;;;;;;;3.70;1.47;;;13.30;99.90;;;;;;21056973;28;20032;-80
2022/09/18 18:32:09;;;;;;;1.73;0.77;;;13.20;99.90;;;;;;21101516;28;20032;-80
2022/09/18 18:42:10;;;;;;;7.30;1.80;;;13.20;99.90;;;;;;21103978;28;20034;-82
2022/09/18 18:52:11;;;;;;;7.00;2.87;;;13.20;99.90;;;;;;21078150;28;20278;-80
2022/09/18 19:02:12;;;;;;;15.53;2.43;;;13.00;99.90;;;;;;21094518;28;20514;-80
2022/09/18 19:12:14;;;;;;;5.17;2.40;;;12.90;99.90;;;;;;21092090;28;20084;-79
2022/09/18 19:22:17;;;;;;;;;;;12.80;99.90;;;;;;21091832;28;20055;-80
2022/09/18 19:32:19;;;;;;;2.17;0.65;;;12.80;99.90;;;;;;21044675;28;20428;-81
2022/09/18 19:42:26;;;;;;;3.65;0.70;;;12.70;99.90;;;;;;21009360;28;20054;-81
2022/09/18 19:52:28;;;;;;;2.10;0.70;;;12.70;99.90;;;;;;21010237;28;20461;-80
2022/09/18 20:02:28;;;;;;;2.00;0.70;;;12.70;99.90;;;;;;21001411;28;20446;-81
2022/09/18 20:12:29;;;;;;;3.47;1.00;;;12.60;99.90;;;;;;21001663;28;20033;-80
2022/09/18 20:22:30;;;;;;;5.80;0.97;;;12.70;99.90;;;;;;21031853;28;20039;-81
2022/09/18 20:32:31;;;;;;;2.50;1.00;;;12.70;99.90;;;;;;21102553;28;20040;-81
2022/09/18 20:42:33;;;;;;;5.40;0.60;;;12.60;99.90;;;;;;21106877;28;20113;-80
2022/09/18 20:52:41;;;;;;;4.80;0.88;;;12.70;99.90;;;;;;21106355;28;20175;-79
2022/09/18 21:02:48;;;;;;;1.08;0.63;;;12.60;99.90;;;;;;21103695;28;20111;-80
2022/09/18 21:12:48;;;;;;;5.55;0.70;;;12.60;99.90;;;;;;21105735;28;20085;-79
2022/09/18 21:33:10;;;;;;;1.88;0.70;;;12.50;99.90;;;;;;21107473;28;20035;-78
2022/09/18 21:43:14;;;;;;;4.15;0.98;;;12.50;99.90;;;;;;21104262;28;20121;-80
2022/09/18 21:53:15;;;;;;;1.60;0.80;;;12.50;99.90;;;;;;21086952;28;20039;-80
2022/09/18 22:03:16;;;;;;;1.67;0.63;;;12.50;99.90;;;;;;21102661;28;20549;-79
2022/09/18 22:13:16;;;;;;;3.53;0.70;;;12.40;99.90;;;;;;21102108;28;20039;-79
2022/09/18 22:23:17;;;;;;;1.10;0.70;;;12.50;99.90;;;;;;21100855;28;20106;-79
2022/09/18 22:33:18;;;;;;;5.83;0.90;;;12.50;99.90;;;;;;21102602;28;20123;-79
2022/09/18 22:43:20;;;;;;;3.00;1.00;;;12.50;99.90;;;;;;21099985;28;20028;-79
2022/09/18 22:53:21;;;;;;;1.75;0.82;;;12.60;99.90;;;;;;21098822;28;20035;-79
2022/09/18 23:03:22;;;;;;;5.10;0.70;;;12.70;99.90;;;;;;21099391;28;20074;-80
2022/09/18 23:13:23;;;;;;;0.70;0.60;;;12.60;99.90;;;;;;21095431;28;20024;-80
2022/09/18 23:23:24;;;;;;;1.37;0.80;;;12.60;99.90;;;;;;21096182;28;20032;-79
2022/09/18 23:33:25;;;;;;;3.10;0.80;;;12.60;99.90;;;;;;21097883;28;20530;-79
2022/09/18 23:43:25;;;;;;;2.43;0.87;;;12.50;99.90;;;;;;21094713;28;20041;-80
2022/09/18 23:53:28;;;;;;;5.77;0.70;;;12.50;99.90;;;;;;21096550;28;20559;-80
